createdAt,value
2023-04-27T00:02:20.959Z,11.14
2023-04-27T00:04:50.996Z,11.12
2023-04-27T00:07:19.008Z,11.08
2023-04-27T00:09:46.783Z,11.04
2023-04-27T00:12:15.217Z,11.00
2023-04-27T00:14:43.011Z,10.97
2023-04-27T00:17:10.978Z,10.93
2023-04-27T00:19:40.207Z,10.88
2023-04-27T00:22:09.614Z,10.87
2023-04-27T00:24:37.450Z,10.82
2023-04-27T00:27:06.275Z,10.80
2023-04-27T00:29:34.290Z,10.77
2023-04-27T00:32:02.158Z,10.73
2023-04-27T00:34:30.562Z,10.71
2023-04-27T00:36:58.865Z,10.61
2023-04-27T00:39:27.996Z,10.63
2023-04-27T00:41:56.351Z,10.60
2023-04-27T00:44:25.142Z,10.57
2023-04-27T00:46:53.711Z,10.53
2023-04-27T00:49:23.086Z,10.49
2023-04-27T00:51:50.960Z,10.47
2023-04-27T00:54:21.838Z,10.46
2023-04-27T00:56:52.258Z,10.43
2023-04-27T00:59:20.540Z,10.38
2023-04-27T01:01:48.735Z,10.34
2023-04-27T01:04:17.349Z,10.31
2023-04-27T01:06:45.543Z,10.29
2023-04-27T01:09:13.916Z,10.26
2023-04-27T01:11:42.528Z,10.25
2023-04-27T01:14:11.718Z,10.24
2023-04-27T01:16:39.554Z,10.21
2023-04-27T01:19:09.329Z,10.16
2023-04-27T01:21:36.904Z,10.24
2023-04-27T01:24:07.488Z,10.20
2023-04-27T01:26:36.238Z,10.16
2023-04-27T01:29:04.053Z,10.13
2023-04-27T01:31:32.233Z,10.09
2023-04-27T01:34:00.829Z,10.05
2023-04-27T01:36:28.746Z,10.02
2023-04-27T01:38:56.642Z,9.99
2023-04-27T01:41:26.429Z,9.97
2023-04-27T01:43:54.199Z,9.93
2023-04-27T01:46:22.117Z,9.91
2023-04-27T01:48:50.429Z,9.89
2023-04-27T01:51:18.206Z,9.84
2023-04-27T01:53:45.993Z,9.83
2023-04-27T01:56:13.814Z,9.80
2023-04-27T01:58:43.026Z,9.78
2023-04-27T02:01:11.484Z,9.76
2023-04-27T02:03:39.803Z,9.74
2023-04-27T02:06:08.223Z,9.72
2023-04-27T02:08:36.024Z,9.71
2023-04-27T02:11:04.308Z,9.62
2023-04-27T02:13:32.063Z,9.65
2023-04-27T02:16:02.208Z,9.65
2023-04-27T02:18:30.419Z,9.60
2023-04-27T02:20:58.172Z,9.59
2023-04-27T02:23:26.045Z,9.56
2023-04-27T02:25:54.169Z,9.54
2023-04-27T02:28:21.969Z,9.51
2023-04-27T02:30:50.213Z,9.50
2023-04-27T02:33:19.747Z,9.47
2023-04-27T02:35:47.514Z,9.44
2023-04-27T02:38:15.774Z,9.43
2023-04-27T02:40:44.076Z,9.41
2023-04-27T02:43:11.981Z,9.38
2023-04-27T02:45:39.763Z,9.34
2023-04-27T02:48:08.287Z,9.30
2023-04-27T02:50:41.906Z,9.32
2023-04-27T02:53:10.230Z,9.29
2023-04-27T02:55:38.420Z,9.24
2023-04-27T02:58:06.234Z,9.23
2023-04-27T03:00:34.623Z,9.20
2023-04-27T03:03:03.017Z,9.19
2023-04-27T03:05:31.809Z,9.15
2023-04-27T03:08:01.869Z,9.15
2023-04-27T03:10:29.698Z,9.10
2023-04-27T03:12:57.476Z,9.08
2023-04-27T03:15:25.586Z,9.05
2023-04-27T03:17:53.460Z,9.04
2023-04-27T03:20:23.013Z,9.02
2023-04-27T03:22:51.119Z,8.99
2023-04-27T03:25:20.470Z,9.00
2023-04-27T03:27:48.262Z,8.97
2023-04-27T03:30:16.850Z,8.95
2023-04-27T03:32:47.063Z,8.92
2023-04-27T03:35:15.767Z,8.92
2023-04-27T03:37:46.247Z,8.90
2023-04-27T03:40:15.494Z,8.87
2023-04-27T03:42:44.674Z,8.86
2023-04-27T03:45:13.203Z,8.83
2023-04-27T03:47:41.179Z,8.80
2023-04-27T03:50:09.825Z,8.79
2023-04-27T03:52:37.910Z,8.78
2023-04-27T03:55:07.308Z,8.76
2023-04-27T03:57:35.118Z,8.74
2023-04-27T04:00:11.419Z,8.74
2023-04-27T04:02:39.388Z,8.69
2023-04-27T04:05:07.751Z,8.65
2023-04-27T04:07:35.940Z,8.63
2023-04-27T04:10:03.876Z,8.61
2023-04-27T04:12:31.703Z,8.60
2023-04-27T04:14:59.826Z,8.55
2023-04-27T04:17:29.313Z,8.55
2023-04-27T04:19:57.114Z,8.52
2023-04-27T04:22:25.288Z,8.49
2023-04-27T04:24:53.586Z,8.48
2023-04-27T04:27:21.403Z,8.46
2023-04-27T04:29:49.466Z,8.55
2023-04-27T04:32:19.562Z,8.71
2023-04-27T04:34:52.053Z,8.95
2023-04-27T04:37:19.816Z,9.15
2023-04-27T04:39:47.628Z,9.29
2023-04-27T04:42:16.107Z,9.45
2023-04-27T04:44:44.662Z,9.54
2023-04-27T04:47:13.106Z,9.58
2023-04-27T04:49:41.624Z,9.60
2023-04-27T04:52:10.861Z,9.64
2023-04-27T04:54:38.624Z,9.62
2023-04-27T04:57:08.174Z,9.64
2023-04-27T04:59:36.038Z,9.65
2023-04-27T05:02:03.825Z,9.66
2023-04-27T05:04:32.853Z,9.67
2023-04-27T05:07:01.258Z,9.69
2023-04-27T05:09:30.482Z,9.71
2023-04-27T05:11:58.822Z,9.74
2023-04-27T05:14:26.947Z,9.77
2023-04-27T05:16:54.712Z,9.81
2023-04-27T05:19:22.698Z,9.85
2023-04-27T05:21:50.532Z,9.89
2023-04-27T05:24:18.342Z,9.95
2023-04-27T05:26:48.138Z,10.00
2023-04-27T05:29:16.422Z,10.04
2023-04-27T05:31:44.500Z,10.08
2023-04-27T05:34:13.741Z,10.12
2023-04-27T05:36:41.562Z,10.18
2023-04-27T05:39:09.377Z,10.21
2023-04-27T05:41:37.296Z,10.27
2023-04-27T05:44:06.652Z,10.31
2023-04-27T05:46:36.441Z,10.34
2023-04-27T05:49:05.823Z,10.40
2023-04-27T05:51:34.288Z,10.44
2023-04-27T05:54:02.202Z,10.46
2023-04-27T05:56:30.562Z,10.48
2023-04-27T05:58:59.476Z,10.52
2023-04-27T06:01:29.717Z,10.57
2023-04-27T06:04:02.052Z,10.60
2023-04-27T06:06:32.960Z,10.67
2023-04-27T06:09:01.288Z,10.69
2023-04-27T06:11:29.194Z,10.76
2023-04-27T06:13:57.059Z,10.81
2023-04-27T06:16:25.547Z,10.87
2023-04-27T06:18:54.746Z,10.93
2023-04-27T06:21:22.498Z,11.00
2023-04-27T06:23:51.085Z,11.05
2023-04-27T06:26:18.880Z,11.12
2023-04-27T06:28:46.775Z,11.19
2023-04-27T06:31:15.882Z,11.27
2023-04-27T06:33:43.727Z,11.35
2023-04-27T06:36:12.905Z,11.44
2023-04-27T06:38:41.654Z,11.52
2023-04-27T06:41:09.497Z,11.58
2023-04-27T06:43:37.286Z,11.66
2023-04-27T06:46:06.705Z,11.70
2023-04-27T06:48:35.029Z,11.80
2023-04-27T06:51:02.810Z,11.87
2023-04-27T06:53:32.566Z,11.96
2023-04-27T06:56:00.442Z,12.03
2023-04-27T06:58:28.272Z,12.09
2023-04-27T07:00:57.922Z,12.16
2023-04-27T07:03:25.924Z,12.24
2023-04-27T07:05:54.160Z,12.33
2023-04-27T07:08:22.556Z,12.41
2023-04-27T07:10:51.762Z,12.50
2023-04-27T07:13:19.577Z,12.59
2023-04-27T07:15:47.954Z,12.66
2023-04-27T07:18:16.026Z,12.75
2023-04-27T07:20:43.977Z,12.79
2023-04-27T07:23:12.292Z,12.86
2023-04-27T07:25:40.463Z,12.92
2023-04-27T07:28:09.922Z,12.99
2023-04-27T07:30:38.601Z,13.03
2023-04-27T07:33:07.234Z,13.09
2023-04-27T07:35:35.384Z,13.16
2023-04-27T07:38:04.361Z,13.25
2023-04-27T07:40:32.776Z,13.35
2023-04-27T07:43:00.622Z,13.44
2023-04-27T07:45:33.465Z,13.54
2023-04-27T07:48:02.476Z,13.62
2023-04-27T07:50:31.029Z,13.71
2023-04-27T07:52:59.406Z,13.82
2023-04-27T07:55:28.665Z,13.93
2023-04-27T07:57:57.763Z,14.03
2023-04-27T08:00:26.968Z,14.11
2023-04-27T08:02:56.591Z,14.25
2023-04-27T08:05:25.025Z,14.31
2023-04-27T08:07:54.828Z,14.40
2023-04-27T08:10:22.614Z,14.51
2023-04-27T08:12:50.720Z,14.59
2023-04-27T08:15:19.214Z,14.63
2023-04-27T08:17:47.362Z,14.71
2023-04-27T08:20:16.820Z,14.78
2023-04-27T08:22:45.828Z,14.81
2023-04-27T08:25:13.671Z,14.85
2023-04-27T08:27:41.777Z,14.90
2023-04-27T08:30:11.714Z,14.93
2023-04-27T08:32:40.104Z,14.96
2023-04-27T08:35:08.353Z,14.91
2023-04-27T08:37:38.061Z,14.99
2023-04-27T08:40:08.059Z,15.02
2023-04-27T08:42:35.942Z,15.07
2023-04-27T08:45:04.693Z,15.11
2023-04-27T08:47:42.532Z,15.16
2023-04-27T08:50:12.764Z,15.20
2023-04-27T08:52:44.758Z,15.22
2023-04-27T08:55:15.729Z,15.26
2023-04-27T08:57:55.363Z,15.27
2023-04-27T09:00:23.792Z,15.32
2023-04-27T09:02:51.809Z,15.36
2023-04-27T09:05:20.686Z,15.41
2023-04-27T09:08:01.359Z,15.50
2023-04-27T09:10:30.013Z,15.57
2023-04-27T09:13:02.443Z,15.62
2023-04-27T09:15:30.373Z,15.67
2023-04-27T09:17:58.884Z,15.71
2023-04-27T09:20:29.188Z,15.77
2023-04-27T09:22:58.508Z,15.79
2023-04-27T09:25:28.849Z,15.89
2023-04-27T09:27:58.578Z,15.94
2023-04-27T09:30:26.433Z,15.98
2023-04-27T09:32:56.033Z,16.02
2023-04-27T09:35:25.059Z,16.07
2023-04-27T09:37:53.899Z,16.04
2023-04-27T09:40:27.088Z,16.01
2023-04-27T09:42:57.912Z,16.01
2023-04-27T09:45:26.527Z,15.94
2023-04-27T09:47:55.604Z,15.92
2023-04-27T09:50:23.553Z,15.91
2023-04-27T09:52:51.541Z,15.96
2023-04-27T09:55:26.070Z,16.01
2023-04-27T09:58:07.761Z,16.07
2023-04-27T10:00:49.792Z,16.12
2023-04-27T10:03:24.810Z,16.20
2023-04-27T10:06:37.224Z,16.26
2023-04-27T10:09:06.628Z,16.30
2023-04-27T10:11:40.075Z,16.37
2023-04-27T10:14:11.832Z,16.42
2023-04-27T10:16:47.105Z,16.47
2023-04-27T10:19:15.641Z,16.51
2023-04-27T10:21:54.915Z,16.58
2023-04-27T10:24:33.614Z,16.67
2023-04-27T10:27:07.099Z,16.72
2023-04-27T10:29:41.822Z,16.77
2023-04-27T10:32:11.964Z,16.83
2023-04-27T10:34:41.531Z,16.88
2023-04-27T10:37:10.916Z,16.95
2023-04-27T10:39:48.450Z,17.00
2023-04-27T10:42:28.615Z,17.03
2023-04-27T10:44:59.659Z,17.03
2023-04-27T10:47:38.690Z,17.04
2023-04-27T10:50:08.925Z,17.07
2023-04-27T10:52:36.750Z,17.07
2023-04-27T10:55:18.537Z,17.12
2023-04-27T10:57:51.042Z,17.14
2023-04-27T11:00:26.113Z,17.17
2023-04-27T11:02:54.702Z,17.22
2023-04-27T11:05:29.641Z,17.28
2023-04-27T11:08:06.984Z,17.28
2023-04-27T11:10:36.252Z,17.22
2023-04-27T11:13:11.636Z,17.34
2023-04-27T11:15:51.879Z,17.39
2023-04-27T11:18:21.313Z,17.43
2023-04-27T11:20:51.705Z,17.49
2023-04-27T11:23:26.862Z,17.56
2023-04-27T11:25:55.241Z,17.58
2023-04-27T11:28:24.103Z,17.64
2023-04-27T11:30:59.728Z,17.69
2023-04-27T11:33:27.993Z,17.71
2023-04-27T11:35:56.661Z,17.76
2023-04-27T11:38:25.184Z,17.80
2023-04-27T11:41:03.519Z,17.88
2023-04-27T11:43:31.737Z,17.92
2023-04-27T11:46:04.099Z,17.94
2023-04-27T11:48:32.329Z,18.05
2023-04-27T11:51:01.448Z,18.14
2023-04-27T11:53:34.413Z,18.13
2023-04-27T11:56:05.120Z,18.15
2023-04-27T11:58:35.514Z,18.21
2023-04-27T12:01:05.499Z,18.25
2023-04-27T12:03:33.736Z,18.19
2023-04-27T12:08:33.387Z,18.23
2023-04-27T12:11:01.220Z,18.27
2023-04-27T12:13:29.091Z,18.29
2023-04-27T12:15:58.465Z,18.31
2023-04-27T12:18:28.293Z,18.37
2023-04-27T12:20:56.722Z,18.41
2023-04-27T12:23:24.537Z,18.46
2023-04-27T12:25:52.364Z,18.50
2023-04-27T12:28:21.007Z,18.53
2023-04-27T12:30:49.783Z,18.54
2023-04-27T12:33:17.726Z,18.61
2023-04-27T12:35:46.894Z,18.64
2023-04-27T12:38:14.681Z,18.67
2023-04-27T12:40:42.556Z,18.67
2023-04-27T12:43:10.996Z,18.69
2023-04-27T12:45:38.775Z,18.70
2023-04-27T12:48:07.304Z,18.70
2023-04-27T12:50:38.005Z,18.71
2023-04-27T12:53:07.388Z,18.78
2023-04-27T12:55:35.228Z,18.83
2023-04-27T12:58:04.762Z,18.85
2023-04-27T13:00:32.575Z,18.93
2023-04-27T13:03:00.559Z,18.95
2023-04-27T13:05:31.271Z,18.99
2023-04-27T13:07:59.820Z,18.99
2023-04-27T13:10:29.681Z,19.00
2023-04-27T13:12:57.876Z,18.99
2023-04-27T13:15:25.653Z,18.99
2023-04-27T13:17:54.902Z,18.94
2023-04-27T13:20:22.813Z,18.96
2023-04-27T13:22:50.597Z,19.00
2023-04-27T13:25:20.435Z,19.04
2023-04-27T13:27:50.173Z,19.08
2023-04-27T13:30:18.096Z,19.13
2023-04-27T13:32:46.474Z,19.16
2023-04-27T13:35:14.528Z,19.20
2023-04-27T13:37:42.781Z,19.23
2023-04-27T13:40:12.751Z,19.26
2023-04-27T13:42:41.091Z,19.28
2023-04-27T13:45:11.450Z,19.32
2023-04-27T13:47:40.836Z,19.32
2023-04-27T13:50:10.567Z,19.33
2023-04-27T13:52:40.311Z,19.36
2023-04-27T13:55:10.219Z,19.36
2023-04-27T13:57:38.905Z,19.38
2023-04-27T14:00:11.500Z,19.42
2023-04-27T14:02:41.065Z,19.45
2023-04-27T14:05:09.573Z,19.47
2023-04-27T14:07:37.661Z,19.47
2023-04-27T14:10:06.296Z,19.48
2023-04-27T14:12:34.156Z,19.48
2023-04-27T14:15:02.165Z,19.47
2023-04-27T14:17:29.924Z,19.49
2023-04-27T14:20:07.648Z,19.50
2023-04-27T14:22:36.916Z,19.49
2023-04-27T14:25:04.962Z,19.51
2023-04-27T14:27:33.085Z,19.50
2023-04-27T14:30:02.085Z,19.49
2023-04-27T14:32:29.891Z,19.48
2023-04-27T14:34:58.072Z,19.45
2023-04-27T14:37:27.619Z,19.42
2023-04-27T14:39:55.327Z,19.46
2023-04-27T14:42:24.114Z,19.44
2023-04-27T14:44:51.880Z,19.42
2023-04-27T14:47:19.808Z,19.40
2023-04-27T14:49:48.132Z,19.38
2023-04-27T14:52:15.908Z,19.38
2023-04-27T14:54:45.068Z,19.37
2023-04-27T14:57:13.341Z,19.36
2023-04-27T14:59:41.136Z,19.34
2023-04-27T15:02:08.913Z,19.28
2023-04-27T15:04:38.090Z,19.27
2023-04-27T15:07:06.399Z,19.25
2023-04-27T15:09:35.047Z,19.24
2023-04-27T15:12:05.578Z,19.22
2023-04-27T15:14:33.345Z,19.19
2023-04-27T15:17:01.270Z,19.19
2023-04-27T15:19:29.670Z,19.18
2023-04-27T15:21:57.438Z,19.15
2023-04-27T15:24:25.248Z,19.14
2023-04-27T15:26:53.488Z,19.10
2023-04-27T15:29:22.648Z,19.06
2023-04-27T15:31:50.707Z,19.01
2023-04-27T15:34:19.069Z,19.06
2023-04-27T15:36:46.878Z,19.05
2023-04-27T15:39:14.833Z,19.05
2023-04-27T15:41:43.382Z,19.04
2023-04-27T15:44:11.285Z,19.04
2023-04-27T15:46:40.463Z,19.03
2023-04-27T15:49:08.725Z,19.04
2023-04-27T15:51:36.484Z,19.04
2023-04-27T15:54:04.436Z,18.97
2023-04-27T15:56:32.769Z,18.97
2023-04-27T15:59:00.544Z,18.98
2023-04-27T16:01:28.506Z,18.99
2023-04-27T16:03:58.510Z,19.00
2023-04-27T16:06:31.917Z,19.01
2023-04-27T16:09:00.580Z,18.99
2023-04-27T16:11:28.377Z,18.98
2023-04-27T16:13:56.152Z,18.99
2023-04-27T16:16:24.699Z,18.98
2023-04-27T16:18:52.462Z,18.96
2023-04-27T16:21:21.748Z,18.95
2023-04-27T16:23:50.218Z,18.95
2023-04-27T16:26:18.013Z,18.94
2023-04-27T16:28:45.840Z,18.94
2023-04-27T16:31:14.490Z,18.93
2023-04-27T16:33:42.246Z,18.93
2023-04-27T16:36:12.012Z,18.88
2023-04-27T16:38:41.807Z,18.93
2023-04-27T16:41:09.569Z,18.93
2023-04-27T16:43:37.304Z,18.93
2023-04-27T16:46:06.662Z,18.87
2023-04-27T16:48:35.736Z,18.91
2023-04-27T16:51:03.793Z,18.90
2023-04-27T16:53:32.160Z,18.89
2023-04-27T16:56:02.145Z,18.89
2023-04-27T16:58:30.904Z,18.84
2023-04-27T17:00:59.491Z,18.81
2023-04-27T17:03:27.700Z,18.80
2023-04-27T17:05:55.576Z,18.72
2023-04-27T17:08:23.894Z,18.72
2023-04-27T17:10:51.651Z,18.71
2023-04-27T17:13:20.771Z,18.69
2023-04-27T17:15:49.332Z,18.67
2023-04-27T17:18:17.198Z,18.65
2023-04-27T17:20:44.979Z,18.51
2023-04-27T17:23:12.939Z,18.51
2023-04-27T17:25:41.533Z,18.52
2023-04-27T17:28:09.496Z,18.48
2023-04-27T17:30:38.985Z,18.48
2023-04-27T17:33:06.940Z,18.46
2023-04-27T17:35:34.800Z,18.41
2023-04-27T17:38:03.037Z,18.42
2023-04-27T17:40:31.971Z,18.42
2023-04-27T17:43:00.116Z,18.40
2023-04-27T17:45:29.082Z,18.41
2023-04-27T17:47:58.257Z,18.40
2023-04-27T17:50:26.584Z,18.39
2023-04-27T17:52:54.791Z,18.40
2023-04-27T17:55:23.467Z,18.36
2023-04-27T17:57:51.544Z,18.37
2023-04-27T18:00:20.013Z,18.35
2023-04-27T18:02:49.690Z,18.33
2023-04-27T18:05:19.145Z,18.32
2023-04-27T18:07:47.422Z,18.23
2023-04-27T18:10:15.221Z,18.27
2023-04-27T18:12:43.146Z,18.25
2023-04-27T18:15:11.851Z,18.24
2023-04-27T18:17:39.651Z,18.23
2023-04-27T18:20:10.464Z,18.22
2023-04-27T18:22:41.647Z,18.21
2023-04-27T18:25:10.911Z,18.16
2023-04-27T18:27:38.711Z,18.11
2023-04-27T18:30:08.777Z,18.10
2023-04-27T18:32:36.989Z,18.09
2023-04-27T18:35:05.633Z,18.06
2023-04-27T18:37:33.969Z,18.06
2023-04-27T18:40:04.854Z,18.06
2023-04-27T18:42:32.668Z,18.05
2023-04-27T18:45:01.809Z,18.04
2023-04-27T18:47:29.660Z,18.03
2023-04-27T18:49:57.436Z,18.03
2023-04-27T18:52:25.817Z,18.02
2023-04-27T18:54:53.587Z,18.00
2023-04-27T18:57:23.017Z,18.01
2023-04-27T18:59:51.313Z,17.98
2023-04-27T19:02:19.167Z,17.97
2023-04-27T19:04:52.917Z,17.97
2023-04-27T19:07:30.367Z,17.95
2023-04-27T19:09:58.142Z,17.95
2023-04-27T19:12:27.325Z,17.93
2023-04-27T19:14:55.646Z,17.92
2023-04-27T19:17:23.483Z,17.90
2023-04-27T19:19:51.286Z,17.88
2023-04-27T19:22:19.615Z,17.88
2023-04-27T19:24:47.340Z,17.85
2023-04-27T19:27:15.159Z,17.84
2023-04-27T19:29:52.580Z,17.84
2023-04-27T19:32:21.297Z,17.81
2023-04-27T19:34:49.763Z,17.79
2023-04-27T19:37:18.228Z,17.77
2023-04-27T19:39:46.876Z,17.75
2023-04-27T19:42:15.159Z,17.74
2023-04-27T19:44:43.531Z,17.71
2023-04-27T19:47:12.701Z,17.72
2023-04-27T19:49:40.482Z,17.69
2023-04-27T19:52:08.809Z,17.68
2023-04-27T19:54:38.209Z,17.66
2023-04-27T19:57:06.116Z,17.65
2023-04-27T19:59:34.270Z,17.65
2023-04-27T20:02:02.072Z,17.62
2023-04-27T20:04:31.422Z,17.60
2023-04-27T20:06:59.952Z,17.59
2023-04-27T20:09:27.823Z,17.58
2023-04-27T20:11:56.019Z,17.56
2023-04-27T20:14:24.718Z,17.55
2023-04-27T20:16:52.425Z,17.55
2023-04-27T20:19:20.842Z,17.52
2023-04-27T20:21:50.259Z,17.51
2023-04-27T20:24:18.197Z,17.48
2023-04-27T20:26:46.393Z,17.46
2023-04-27T20:29:14.480Z,17.44
2023-04-27T20:31:42.566Z,17.40
2023-04-27T20:34:10.364Z,17.38
2023-04-27T20:36:38.354Z,17.35
2023-04-27T20:39:09.006Z,17.34
2023-04-27T20:41:38.648Z,17.31
2023-04-27T20:44:06.269Z,17.34
2023-04-27T20:46:34.111Z,17.31
2023-04-27T20:49:02.127Z,17.27
2023-04-27T20:51:29.982Z,17.22
2023-04-27T20:53:57.746Z,17.20
2023-04-27T20:56:27.404Z,17.18
2023-04-27T20:58:54.968Z,17.19
2023-04-27T21:01:22.774Z,17.16
2023-04-27T21:03:51.009Z,17.13
2023-04-27T21:06:19.231Z,17.09
2023-04-27T21:08:47.080Z,17.05
2023-04-27T21:11:17.363Z,17.03
2023-04-27T21:13:47.289Z,17.03
2023-04-27T21:16:15.244Z,17.00
2023-04-27T21:18:43.113Z,17.00
2023-04-27T21:21:10.916Z,16.98
2023-04-27T21:23:39.093Z,16.96
2023-04-27T21:26:08.382Z,16.94
2023-04-27T21:28:36.931Z,16.93
2023-04-27T21:31:06.885Z,16.90
2023-04-27T21:33:34.663Z,16.89
2023-04-27T21:36:04.591Z,16.85
2023-04-27T21:38:32.432Z,16.83
2023-04-27T21:41:00.251Z,16.79
2023-04-27T21:43:28.522Z,16.78
2023-04-27T21:45:56.675Z,16.76
2023-04-27T21:48:25.948Z,16.75
2023-04-27T21:50:53.749Z,16.74
2023-04-27T21:53:21.742Z,16.73
2023-04-27T21:55:51.078Z,16.71
2023-04-27T21:58:18.859Z,16.68
2023-04-27T22:00:46.986Z,16.69
2023-04-27T22:03:14.904Z,16.67
2023-04-27T22:05:45.392Z,16.67
2023-04-27T22:08:13.655Z,16.64
2023-04-27T22:10:41.675Z,16.62
2023-04-27T22:13:18.991Z,16.62
2023-04-27T22:15:47.998Z,16.60
2023-04-27T22:18:16.115Z,16.59
2023-04-27T22:20:46.365Z,16.60
2023-04-27T22:23:14.276Z,16.58
2023-04-27T22:25:43.218Z,16.59
2023-04-27T22:28:11.813Z,16.60
2023-04-27T22:30:41.054Z,16.57
2023-04-27T22:33:09.187Z,16.58
2023-04-27T22:35:38.439Z,16.57
2023-04-27T22:38:08.101Z,16.56
2023-04-27T22:40:36.316Z,16.53
2023-04-27T22:43:04.231Z,16.52
2023-04-27T22:45:31.994Z,16.51
2023-04-27T22:47:59.892Z,16.50
2023-04-27T22:50:28.117Z,16.50
2023-04-27T22:52:55.900Z,16.49
2023-04-27T22:55:25.337Z,16.49
2023-04-27T22:57:54.157Z,16.42
2023-04-27T23:00:22.117Z,16.44
2023-04-27T23:02:50.078Z,16.44
2023-04-27T23:05:18.444Z,16.42
2023-04-27T23:07:46.412Z,16.43
2023-04-27T23:10:15.207Z,16.41
2023-04-27T23:12:44.679Z,16.44
2023-04-27T23:15:13.004Z,16.41
2023-04-27T23:17:41.252Z,16.42
2023-04-27T23:20:26.618Z,16.42
2023-04-27T23:22:56.309Z,16.42
2023-04-27T23:25:24.461Z,16.43
2023-04-27T23:27:53.611Z,16.42
2023-04-27T23:30:22.392Z,16.42
2023-04-27T23:32:50.746Z,16.41
2023-04-27T23:35:18.706Z,16.40
2023-04-27T23:37:46.467Z,16.40
2023-04-27T23:40:14.606Z,16.38
2023-04-27T23:42:42.405Z,16.36
2023-04-27T23:45:12.441Z,16.36
2023-04-27T23:47:43.248Z,16.34
2023-04-27T23:50:11.727Z,16.33
2023-04-27T23:52:39.497Z,16.30
2023-04-27T23:55:08.566Z,16.27
2023-04-27T23:57:36.332Z,16.24
